Time;durP1;ratioP1;P1;durP2;ratioP2;P2;SDS_P1;SDS_P2;PMS_P1;PMS_P2;Temp;Humidity;BMP_temperature;BMP_pressure;BME280_temperature;BME280_humidity;BME280_pressure;Samples;Min_cycle;Max_cycle;Signal;HPM_P1;HPM_P2
2023/10/20 00:00:57;;;;;;;45.85;42.05;;;;;;;19.82;46.28;94629.66;6158873;28;109586;-62
2023/10/20 00:04:03;;;;;;;47.00;43.05;;;;;;;19.83;46.12;94647.94;6165228;28;109215;-62
2023/10/20 00:07:06;;;;;;;43.88;40.17;;;;;;;19.80;46.22;94624.63;6175704;28;108837;-63
2023/10/20 00:10:11;;;;;;;44.10;40.40;;;;;;;19.82;46.29;94640.25;6179081;28;109080;-66
2023/10/20 00:13:14;;;;;;;40.53;37.13;;;;;;;19.80;46.33;94626.50;6154947;28;109143;-65
2023/10/20 00:16:25;;;;;;;40.15;36.85;;;;;;;19.80;45.96;94640.56;6172007;28;109168;-66
2023/10/20 00:19:29;;;;;;;39.30;36.05;;;;;;;19.80;46.21;94614.00;6166314;28;109082;-67
2023/10/20 00:22:32;;;;;;;39.17;35.88;;;;;;;19.81;46.17;94620.91;6177894;28;110132;-66
2023/10/20 00:25:35;;;;;;;37.55;34.45;;;;;;;19.79;46.06;94612.44;6168426;28;109801;-66
2023/10/20 00:28:38;;;;;;;38.70;35.50;;;;;;;19.80;46.10;94616.66;6181597;28;109204;-66
2023/10/20 00:31:43;;;;;;;37.35;34.35;;;;;;;19.80;46.04;94621.19;6176342;28;109394;-66
2023/10/20 00:34:46;;;;;;;37.83;34.65;;;;;;;19.80;46.02;94607.94;6166827;28;110577;-66
2023/10/20 00:37:51;;;;;;;37.43;34.40;;;;;;;19.79;45.85;94598.41;6172550;28;109431;-66
2023/10/20 00:40:54;;;;;;;37.00;34.00;;;;;;;19.79;46.00;94603.69;6180099;28;109631;-66
2023/10/20 00:43:57;;;;;;;33.23;30.43;;;;;;;19.78;46.31;94605.56;6164220;28;109502;-66
2023/10/20 00:47:02;;;;;;;35.65;32.75;;;;;;;19.78;46.08;94597.59;6162209;28;109263;-72
2023/10/20 00:50:08;;;;;;;34.40;31.60;;;;;;;19.78;46.04;94610.09;6178959;28;109727;-66
2023/10/20 00:53:12;;;;;;;32.60;29.90;;;;;;;19.78;46.04;94580.91;6176804;28;109118;-66
2023/10/20 00:56:16;;;;;;;32.25;29.65;;;;;;;19.76;45.99;94591.81;6175349;28;109238;-66
2023/10/20 00:59:19;;;;;;;31.08;28.48;;;;;;;19.77;46.04;94605.88;6168868;28;110011;-66
2023/10/20 01:02:24;;;;;;;30.70;28.17;;;;;;;19.76;45.98;94583.84;6175605;28;111253;-67
2023/10/20 01:05:27;;;;;;;29.00;26.50;;;;;;;19.75;45.91;94597.44;6164680;28;110074;-66
2023/10/20 01:08:31;;;;;;;29.75;27.25;;;;;;;19.77;45.81;94603.22;6151301;28;109175;-66
2023/10/20 01:11:34;;;;;;;29.40;26.90;;;;;;;19.75;45.86;94598.22;6166480;28;109545;-66
2023/10/20 01:14:38;;;;;;;28.52;26.20;;;;;;;19.76;46.08;94601.66;6168503;28;109191;-66
2023/10/20 01:17:42;;;;;;;28.48;26.17;;;;;;;19.75;46.03;94589.47;6171698;28;109172;-66
2023/10/20 01:20:45;;;;;;;27.17;24.88;;;;;;;19.75;45.94;94602.75;6148718;28;109154;-62
2023/10/20 01:23:54;;;;;;;26.90;24.60;;;;;;;19.75;46.06;94592.13;6164443;28;109258;-68
2023/10/20 01:26:57;;;;;;;26.73;24.42;;;;;;;19.76;45.78;94593.69;6167772;28;109282;-63
2023/10/20 01:30:00;;;;;;;25.88;23.77;;;;;;;19.75;46.00;94589.47;6161104;28;109195;-62
2023/10/20 01:33:04;;;;;;;25.52;23.42;;;;;;;19.75;45.93;94586.81;6155566;28;109245;-64
2023/10/20 01:36:07;;;;;;;26.10;24.00;;;;;;;19.74;45.83;94586.03;6176578;28;108849;-62
2023/10/20 01:39:12;;;;;;;24.40;22.40;;;;;;;19.73;45.93;94587.91;6166406;28;109145;-62
2023/10/20 01:42:15;;;;;;;24.55;22.45;;;;;;;19.73;45.99;94574.63;6169992;28;111479;-61
2023/10/20 01:45:18;;;;;;;24.13;22.13;;;;;;;19.73;45.64;94574.63;6167940;28;110828;-62
2023/10/20 01:48:21;;;;;;;22.70;20.80;;;;;;;19.71;45.73;94555.56;6178524;28;109023;-62
2023/10/20 01:51:25;;;;;;;22.60;20.70;;;;;;;19.73;45.79;94558.69;6171048;28;109003;-62
2023/10/20 01:54:30;;;;;;;22.27;20.47;;;;;;;19.72;45.80;94562.44;6154789;28;109281;-62
2023/10/20 01:57:33;;;;;;;21.40;19.60;;;;;;;19.72;45.77;94556.34;6172596;28;110656;-61
2023/10/20 02:00:37;;;;;;;21.35;19.55;;;;;;;19.71;45.76;94555.56;6181837;28;109238;-62
2023/10/20 02:03:40;;;;;;;20.90;19.10;;;;;;;19.72;45.61;94546.50;6164392;28;110049;-62
2023/10/20 02:06:43;;;;;;;20.42;18.63;;;;;;;19.70;45.55;94556.66;6168009;28;109037;-62
2023/10/20 02:09:50;;;;;;;19.60;18.00;;;;;;;19.68;45.61;94566.78;6183301;28;109244;-62
2023/10/20 02:12:53;;;;;;;18.93;17.40;;;;;;;19.69;45.56;94573.66;6170472;28;111923;-61
2023/10/20 02:15:56;;;;;;;19.40;17.90;;;;;;;19.70;45.58;94577.09;6177671;28;110314;-62
2023/10/20 02:18:59;;;;;;;19.20;17.60;;;;;;;19.71;45.46;94568.84;6151240;28;109176;-62
2023/10/20 02:22:02;;;;;;;19.25;17.65;;;;;;;19.71;45.64;94566.19;6161562;28;109288;-62
2023/10/20 02:25:09;;;;;;;17.80;16.30;;;;;;;19.69;45.68;94560.41;6157796;28;109572;-63
2023/10/20 02:28:12;;;;;;;17.95;16.45;;;;;;;19.70;45.73;94555.88;6164455;28;109125;-63
2023/10/20 02:31:17;;;;;;;17.08;15.68;;;;;;;19.68;45.60;94556.19;6164371;28;110376;-65
2023/10/20 02:34:21;;;;;;;17.40;15.90;;;;;;;19.70;45.63;94569.16;6179086;28;109201;-72
2023/10/20 02:37:24;;;;;;;17.73;16.25;;;;;;;19.70;45.60;94574.44;6187088;28;110292;-64
2023/10/20 02:40:28;;;;;;;15.80;14.50;;;;;;;19.69;45.67;94571.00;6166574;28;109364;-65
2023/10/20 02:43:32;;;;;;;16.13;14.82;;;;;;;19.69;45.64;94571.00;6183311;28;109311;-64
2023/10/20 02:46:35;;;;;;;16.47;15.17;;;;;;;19.69;45.68;94578.19;6184301;28;109271;-64
2023/10/20 02:49:39;;;;;;;16.10;14.80;;;;;;;19.69;45.64;94575.53;6181940;28;109146;-65
2023/10/20 02:52:43;;;;;;;16.40;15.00;;;;;;;19.69;45.68;94565.72;6150862;28;109238;-65
2023/10/20 02:55:47;;;;;;;15.00;13.70;;;;;;;19.68;45.51;94566.78;6164884;28;113607;-64
2023/10/20 02:58:53;;;;;;;15.48;13.88;;;;;;;19.69;45.55;94570.22;6162721;28;109217;-65
2023/10/20 03:01:56;;;;;;;15.50;14.20;;;;;;;19.69;45.64;94562.28;6162730;28;109322;-65
2023/10/20 03:04:59;;;;;;;13.60;12.50;;;;;;;19.69;45.57;94556.97;6173251;28;108903;-64
2023/10/20 03:08:02;;;;;;;14.20;13.00;;;;;;;19.70;45.51;94569.94;6177020;28;109186;-65
2023/10/20 03:11:08;;;;;;;13.10;12.00;;;;;;;19.70;45.62;94543.38;6180973;28;110098;-64
2023/10/20 03:14:11;;;;;;;12.85;11.75;;;;;;;19.70;45.75;94546.03;6165636;28;109394;-66
2023/10/20 03:17:14;;;;;;;12.90;11.80;;;;;;;19.71;45.71;94539.63;6175386;28;109132;-65
2023/10/20 03:20:24;;;;;;;12.30;11.20;;;;;;;19.76;45.80;94551.22;6168768;28;109309;-66
2023/10/20 03:23:27;;;;;;;14.70;13.18;;;;;;;19.76;46.13;94543.25;6174655;28;109156;-65
2023/10/20 03:26:32;;;;;;;13.73;12.52;;;;;;;19.76;46.13;94540.59;6150334;28;109129;-66
2023/10/20 03:29:36;;;;;;;15.90;14.30;;;;;;;19.80;46.82;94541.56;6171111;28;109121;-66
2023/10/20 03:32:39;;;;;;;15.25;13.75;;;;;;;19.80;46.50;94546.88;6169485;28;109167;-66
2023/10/20 03:35:42;;;;;;;12.88;11.73;;;;;;;19.74;45.78;94546.22;6181722;28;109343;-67
2023/10/20 03:38:45;;;;;;;11.63;10.52;;;;;;;19.63;45.57;94532.38;6170017;28;109884;-66
2023/10/20 03:41:51;;;;;;;9.33;8.53;;;;;;;19.58;45.83;94537.03;6171757;28;109376;-72
2023/10/20 03:44:54;;;;;;;10.00;9.03;;;;;;;19.54;45.96;94539.53;6163904;28;109284;-72
2023/10/20 03:47:58;;;;;;;18.67;17.17;;;;;;;19.51;46.85;94549.97;6159892;28;109158;-72
2023/10/20 03:51:05;;;;;;;11.63;10.50;;;;;;;19.47;47.17;94541.78;6164529;28;109511;-73
2023/10/20 03:54:08;;;;;;;10.70;9.70;;;;;;;19.41;46.85;94525.22;6182062;28;109393;-72
2023/10/20 03:57:15;;;;;;;10.82;9.82;;;;;;;19.44;47.27;94518.53;6170212;28;109117;-73
2023/10/20 04:00:21;;;;;;;13.60;12.40;;;;;;;19.50;47.26;94516.56;6165714;28;108922;-71
2023/10/20 04:03:26;;;;;;;10.75;9.80;;;;;;;19.51;46.92;94513.59;6176097;28;109182;-70
2023/10/20 04:06:31;;;;;;;11.43;10.33;;;;;;;19.62;46.94;94528.16;6182408;28;109329;-74
2023/10/20 04:09:37;;;;;;;10.40;9.40;;;;;;;19.62;47.24;94509.59;6159612;28;110010;-66
2023/10/20 04:12:44;;;;;;;10.52;9.43;;;;;;;19.58;47.46;94518.47;6158071;28;108958;-70
2023/10/20 04:15:48;;;;;;;10.87;9.77;;;;;;;19.60;47.91;94527.69;6165539;28;110321;-71
2023/10/20 04:18:51;;;;;;;13.23;10.73;;;;;;;19.61;47.49;94529.25;6177279;28;109164;-71
2023/10/20 04:21:54;;;;;;;19.27;17.48;;;;;;;19.67;47.68;94512.13;6175724;28;108906;-73
2023/10/20 04:24:59;;;;;;;14.32;12.82;;;;;;;19.26;47.52;94533.50;6170199;28;109637;-62
2023/10/20 04:28:12;;;;;;;12.52;11.32;;;;;;;19.19;47.66;94545.59;6169492;28;109278;-62
2023/10/20 04:48:20;;;;;;;16.98;15.27;;;;;;;18.95;47.09;94546.63;6143967;28;110211;-62
2023/10/20 04:51:40;;;;;;;15.02;13.52;;;;;;;18.94;46.82;94526.50;6184895;28;109286;-63
2023/10/20 04:54:50;;;;;;;14.30;12.80;;;;;;;18.92;46.82;94536.63;6184822;28;110076;-63
2023/10/20 04:57:53;;;;;;;13.00;11.80;;;;;;;18.89;46.79;94539.88;6175766;28;109014;-62
2023/10/20 05:01:07;;;;;;;12.50;11.20;;;;;;;18.87;46.76;94539.38;6184198;28;109822;-63
2023/10/20 05:04:16;;;;;;;12.87;11.77;;;;;;;18.93;46.50;94554.09;6184474;28;109112;-63
2023/10/20 05:07:25;;;;;;;11.55;10.55;;;;;;;18.86;46.55;94550.28;6173529;28;109245;-63
2023/10/20 05:10:28;;;;;;;12.07;10.77;;;;;;;18.86;46.92;94537.03;6184014;28;109037;-62
2023/10/20 05:13:32;;;;;;;11.45;10.25;;;;;;;18.85;46.89;94552.16;6184087;28;108973;-63
2023/10/20 05:16:37;;;;;;;12.48;11.27;;;;;;;18.78;46.79;94563.13;6183947;28;109037;-63
2023/10/20 05:19:40;;;;;;;11.30;10.20;;;;;;;18.85;46.88;94554.81;6172613;28;109230;-63
2023/10/20 05:22:43;;;;;;;11.38;10.27;;;;;;;18.78;46.91;94568.44;6184151;28;109095;-63
2023/10/20 05:25:47;;;;;;;11.43;10.20;;;;;;;18.73;46.78;94557.94;6184111;28;109332;-63
2023/10/20 05:28:51;;;;;;;11.40;10.20;;;;;;;18.80;46.86;94544.28;6183620;28;109143;-63
2023/10/20 05:31:55;;;;;;;12.70;11.40;;;;;;;18.78;47.29;94576.38;6172025;28;109647;-62
2023/10/20 05:34:59;;;;;;;11.83;10.60;;;;;;;18.80;47.11;94595.44;6183984;28;109489;-63
2023/10/20 05:38:02;;;;;;;13.48;12.27;;;;;;;18.82;47.22;94571.31;6183719;28;109121;-63
2023/10/20 05:41:05;;;;;;;12.63;11.43;;;;;;;18.80;47.16;94592.00;6177074;28;109909;-63
2023/10/20 05:44:11;;;;;;;14.13;11.50;;;;;;;18.81;46.94;94596.22;6181758;28;110240;-64
2023/10/20 05:47:16;;;;;;;12.27;11.07;;;;;;;18.80;47.06;94586.69;6183847;28;110375;-64
2023/10/20 05:50:20;;;;;;;13.10;11.80;;;;;;;18.80;47.32;94586.69;6183706;28;109293;-64
2023/10/20 05:53:23;;;;;;;12.63;11.40;;;;;;;18.76;47.11;94589.16;6173876;28;109493;-66
2023/10/20 05:56:26;;;;;;;14.45;13.05;;;;;;;18.79;47.22;94583.25;6183700;28;109361;-64
2023/10/20 05:59:29;;;;;;;17.17;15.38;;;;;;;18.79;47.52;94587.78;6183403;28;109070;-62
2023/10/20 06:02:34;;;;;;;16.40;14.80;;;;;;;18.83;47.24;94580.81;6182390;28;109431;-65
2023/10/20 06:05:38;;;;;;;20.92;16.20;;;;;;;18.87;47.17;94576.50;6172663;28;109219;-63
2023/10/20 06:08:41;;;;;;;16.83;15.13;;;;;;;18.93;47.31;94567.34;6186157;28;108968;-63
2023/10/20 06:11:44;;;;;;;14.60;13.18;;;;;;;18.96;47.32;94595.91;6187756;28;109116;-62
2023/10/20 06:14:47;;;;;;;13.67;12.27;;;;;;;18.99;47.49;94589.25;6182677;28;109762;-62
2023/10/20 06:17:52;;;;;;;12.95;11.60;;;;;;;19.10;47.17;94594.03;6181788;28;109505;-61
2023/10/20 06:20:55;;;;;;;13.07;11.35;;;;;;;19.20;47.32;94597.56;6187660;28;110015;-62
2023/10/20 06:23:58;;;;;;;11.60;10.55;;;;;;;19.27;47.37;94597.94;6187690;28;109588;-62
2023/10/20 06:27:03;;;;;;;11.90;10.70;;;;;;;19.35;46.98;94584.75;6177839;28;109722;-62
2023/10/20 06:30:14;;;;;;;13.70;10.68;;;;;;;19.49;47.43;94594.56;6187238;28;109390;-63
2023/10/20 06:33:19;;;;;;;12.03;9.63;;;;;;;19.70;46.70;94596.47;6186193;28;109019;-63
2023/10/20 06:36:26;;;;;;;9.90;9.00;;;;;;;19.86;46.42;94583.63;6186988;28;109102;-63
2023/10/20 06:39:30;;;;;;;10.07;9.07;;;;;;;20.00;46.69;94594.19;6176618;28;109109;-61
2023/10/20 06:42:34;;;;;;;11.32;9.55;;;;;;;20.02;46.57;94578.72;6187248;28;109156;-61
2023/10/20 06:45:37;;;;;;;11.00;9.88;;;;;;;19.94;46.59;94582.09;6187145;28;110118;-61
2023/10/20 06:48:41;;;;;;;10.43;9.33;;;;;;;19.90;46.40;94595.19;6182247;28;109389;-61
2023/10/20 06:51:44;;;;;;;10.40;9.40;;;;;;;19.87;47.14;94587.06;6180985;28;110091;-69
2023/10/20 06:54:48;;;;;;;9.18;8.38;;;;;;;19.89;46.90;94584.88;6187298;28;110130;-61
2023/10/20 06:58:12;;;;;;;9.50;8.25;;;;;;;19.94;47.24;94587.41;6186746;28;108813;-61
2023/10/20 07:01:15;;;;;;;8.77;7.97;;;;;;;20.01;47.15;94585.13;6176108;28;109247;-63
2023/10/20 07:04:21;;;;;;;9.20;8.30;;;;;;;20.08;47.26;94590.78;6186101;28;110583;-62
2023/10/20 07:07:24;;;;;;;8.50;7.70;;;;;;;20.16;47.03;94597.22;6186723;28;109099;-62
2023/10/20 07:10:28;;;;;;;9.50;8.50;;;;;;;20.19;47.29;94591.31;6186794;28;110161;-65
2023/10/20 07:13:31;;;;;;;9.07;8.27;;;;;;;20.18;47.13;94595.84;6175787;28;110202;-66
2023/10/20 07:16:35;;;;;;;10.07;9.05;;;;;;;20.15;47.25;94607.06;6186600;28;108999;-65
2023/10/20 07:19:40;;;;;;;10.82;9.73;;;;;;;20.14;47.36;94594.88;6185121;28;109140;-65
2023/10/20 07:22:43;;;;;;;9.82;8.82;;;;;;;20.16;47.50;94578.63;6182926;28;110069;-63
2023/10/20 07:25:46;;;;;;;9.65;8.70;;;;;;;20.35;47.38;94597.06;6156226;28;109633;-64
2023/10/20 07:28:49;;;;;;;9.40;8.60;;;;;;;20.44;47.40;94603.97;6169874;28;109150;-64
2023/10/20 07:31:53;;;;;;;9.90;9.00;;;;;;;20.50;47.25;94586.81;6185282;28;109750;-65
2023/10/20 07:34:58;;;;;;;10.32;9.32;;;;;;;20.56;47.07;94595.44;6174974;28;110080;-64
2023/10/20 07:38:01;;;;;;;10.00;9.10;;;;;;;20.56;47.39;94606.06;6185652;28;109089;-65
2023/10/20 07:41:07;;;;;;;9.88;8.98;;;;;;;20.55;47.41;94597.31;6185736;28;109186;-64
2023/10/20 07:44:12;;;;;;;9.87;8.70;;;;;;;20.56;47.15;94595.44;6185619;28;109042;-64
2023/10/20 07:47:15;;;;;;;11.13;10.03;;;;;;;20.54;47.53;94605.59;6174606;28;109062;-67
2023/10/20 07:50:20;;;;;;;10.30;9.40;;;;;;;20.45;47.07;94602.09;6185635;28;109414;-67
2023/10/20 07:53:23;;;;;;;11.57;10.30;;;;;;;20.38;47.50;94588.47;6185880;28;110137;-66
2023/10/20 07:56:26;;;;;;;11.73;10.63;;;;;;;20.30;47.56;94585.47;6186159;28;109063;-69
2023/10/20 07:59:29;;;;;;;12.90;11.70;;;;;;;20.24;47.20;94584.03;6175550;28;109028;-65
2023/10/20 08:02:33;;;;;;;11.27;10.27;;;;;;;20.21;47.58;94587.28;6185686;28;109300;-66
2023/10/20 08:05:38;;;;;;;11.40;10.35;;;;;;;20.23;47.50;94581.66;6184936;28;109090;-66
2023/10/20 08:08:41;;;;;;;9.52;8.73;;;;;;;20.24;47.38;94601.81;6179198;28;110489;-64
2023/10/20 08:11:45;;;;;;;9.70;8.80;;;;;;;20.30;47.49;94582.81;6182226;28;109315;-66
2023/10/20 08:14:48;;;;;;;8.80;8.00;;;;;;;20.41;47.18;94585.22;6185491;28;110036;-67
2023/10/20 08:17:52;;;;;;;8.70;7.80;;;;;;;20.46;47.25;94583.19;6185059;28;109596;-66
2023/10/20 08:21:05;;;;;;;9.00;8.20;;;;;;;20.50;47.39;94578.84;6175485;28;109111;-62
2023/10/20 08:24:10;;;;;;;9.25;8.45;;;;;;;20.54;47.29;94577.16;6185296;28;109377;-61
2023/10/20 08:27:18;;;;;;;9.10;8.20;;;;;;;20.56;47.52;94582.94;6185625;28;109178;-61
2023/10/20 08:30:21;;;;;;;8.88;8.07;;;;;;;20.59;47.28;94581.53;6184749;28;109537;-62
2023/10/20 08:33:25;;;;;;;9.10;8.20;;;;;;;20.63;47.53;94593.91;6175088;28;110109;-62
2023/10/20 08:36:30;;;;;;;9.00;8.20;;;;;;;20.65;47.29;94579.50;6184635;28;109134;-61
2023/10/20 08:39:34;;;;;;;8.80;8.10;;;;;;;20.62;47.37;94583.56;6184983;28;109093;-61
2023/10/20 08:42:38;;;;;;;8.00;7.30;;;;;;;20.59;47.29;94570.91;6179407;28;109555;-61
2023/10/20 08:45:41;;;;;;;8.70;8.00;;;;;;;20.58;47.14;94580.75;6179766;28;109285;-62
2023/10/20 08:48:46;;;;;;;8.60;7.50;;;;;;;20.60;47.59;94559.97;6185013;28;109808;-62
2023/10/20 08:51:51;;;;;;;8.00;7.30;;;;;;;20.63;47.39;94575.28;6185269;28;110379;-61
2023/10/20 08:54:55;;;;;;;8.70;8.00;;;;;;;20.65;47.46;94559.03;6173930;28;109379;-62
2023/10/20 08:57:59;;;;;;;8.60;7.80;;;;;;;20.68;47.49;94573.59;6185194;28;109102;-62
2023/10/20 09:01:03;;;;;;;9.02;8.23;;;;;;;20.72;47.12;94563.91;6184842;28;110303;-68
2023/10/20 09:04:06;;;;;;;9.00;8.20;;;;;;;20.73;47.28;94568.13;6184667;28;109220;-62
2023/10/20 09:07:14;;;;;;;9.25;8.35;;;;;;;20.74;47.41;94554.53;6173007;28;109067;-62
2023/10/20 09:10:17;;;;;;;8.40;7.60;;;;;;;20.76;47.36;94560.31;6184368;28;109115;-61
2023/10/20 09:13:22;;;;;;;8.17;7.47;;;;;;;20.78;47.40;94549.38;6184595;28;109484;-61
2023/10/20 09:16:26;;;;;;;8.52;7.82;;;;;;;20.79;47.10;94557.03;6179314;28;109038;-62
2023/10/20 09:19:29;;;;;;;8.53;7.73;;;;;;;20.80;47.36;94553.28;6178112;28;109426;-66
2023/10/20 09:22:36;;;;;;;9.60;8.70;;;;;;;20.84;46.99;94562.25;6184199;28;113009;-63
2023/10/20 09:25:39;;;;;;;9.50;8.70;;;;;;;20.84;47.15;94527.66;6183747;28;109102;-62
2023/10/20 09:28:47;;;;;;;8.93;8.13;;;;;;;20.88;47.31;94544.56;6173628;28;109367;-63
2023/10/20 09:31:51;;;;;;;8.10;7.40;;;;;;;20.91;47.23;94517.34;6183347;28;109138;-66
2023/10/20 09:34:54;;;;;;;8.63;7.82;;;;;;;20.96;47.17;94539.56;6171311;28;109131;-66
2023/10/20 09:38:10;;;;;;;8.23;7.43;;;;;;;20.98;46.78;94542.69;6158409;28;109184;-66
2023/10/20 09:41:17;;;;;;;8.35;7.55;;;;;;;20.99;47.09;94513.13;6172029;28;109632;-66
2023/10/20 09:44:26;;;;;;;8.83;8.03;;;;;;;21.02;46.84;94511.75;6183836;28;111727;-66
2023/10/20 09:47:30;;;;;;;8.52;7.38;;;;;;;21.04;46.99;94515.66;6183669;28;109213;-66
2023/10/20 09:50:33;;;;;;;7.70;7.00;;;;;;;21.05;46.64;94498.63;6179017;28;109454;-66
2023/10/20 09:53:40;;;;;;;8.25;7.35;;;;;;;21.07;46.43;94512.38;6178154;28;109319;-66
2023/10/20 09:56:45;;;;;;;8.25;7.45;;;;;;;21.08;46.55;94497.22;6183423;28;109090;-66
2023/10/20 09:59:52;;;;;;;7.30;6.60;;;;;;;21.08;46.75;94505.19;6183612;28;109140;-65
2023/10/20 10:02:58;;;;;;;8.20;7.40;;;;;;;21.09;46.50;94498.78;6173475;28;109605;-66
2023/10/20 10:06:02;;;;;;;8.20;7.40;;;;;;;21.08;46.59;94500.66;6183443;28;110121;-66
2023/10/20 10:09:08;;;;;;;7.77;6.97;;;;;;;21.09;46.63;94512.84;6182493;28;109155;-65
2023/10/20 10:12:14;;;;;;;8.35;7.55;;;;;;;21.10;46.65;94482.50;6183422;28;109220;-66
2023/10/20 10:15:17;;;;;;;7.90;7.10;;;;;;;21.09;46.70;94485.47;6173767;28;109269;-66
2023/10/20 10:18:24;;;;;;;7.10;6.50;;;;;;;21.09;46.59;94480.16;6182980;28;109049;-67
2023/10/20 10:21:29;;;;;;;7.38;6.70;;;;;;;21.09;46.64;94478.28;6182929;28;110138;-66
2023/10/20 10:24:36;;;;;;;8.30;7.50;;;;;;;21.07;46.70;94475.16;6178984;28;109539;-64
2023/10/20 10:27:40;;;;;;;8.40;7.60;;;;;;;21.06;46.72;94456.84;6178346;28;109069;-65
2023/10/20 10:30:45;;;;;;;7.95;7.25;;;;;;;21.06;46.56;94454.19;6182876;28;109624;-65
2023/10/20 10:33:48;;;;;;;7.47;6.77;;;;;;;21.05;46.50;94476.56;6183203;28;109118;-66
2023/10/20 10:36:52;;;;;;;7.47;6.75;;;;;;;21.03;46.35;94441.47;6149334;28;109751;-65
2023/10/20 10:40:04;;;;;;;7.33;6.73;;;;;;;21.03;46.47;94460.09;6166381;28;109351;-66
2023/10/20 10:43:14;;;;;;;7.60;6.90;;;;;;;21.01;46.60;94457.75;6183122;28;110003;-66
2023/10/20 10:46:18;;;;;;;7.13;6.50;;;;;;;20.99;46.27;94443.19;6182566;28;109602;-67
2023/10/20 10:49:21;;;;;;;7.65;6.95;;;;;;;20.99;46.59;94443.19;6172678;28;110066;-65
2023/10/20 10:52:24;;;;;;;7.90;7.10;;;;;;;20.98;46.45;94430.97;6182929;28;109290;-65
2023/10/20 10:55:29;;;;;;;7.80;6.97;;;;;;;20.98;46.38;94425.66;6186596;28;109602;-65
2023/10/20 10:58:33;;;;;;;7.07;6.10;;;;;;;20.98;46.62;94415.03;6184127;28;110702;-65
2023/10/20 11:01:38;;;;;;;7.55;6.85;;;;;;;20.98;46.23;94423.00;6181934;28;109590;-66
2023/10/20 11:04:42;;;;;;;7.75;7.03;;;;;;;20.97;46.40;94432.06;6187250;28;108977;-66
2023/10/20 11:08:02;;;;;;;7.80;7.00;;;;;;;20.96;46.49;94417.22;6186887;28;109490;-69
2023/10/20 11:11:07;;;;;;;7.60;6.80;;;;;;;20.92;46.48;94411.75;6176501;28;108961;-66
2023/10/20 11:14:11;;;;;;;7.20;6.07;;;;;;;20.95;46.37;94420.97;6186706;28;110121;-66
2023/10/20 11:17:14;;;;;;;7.88;7.10;;;;;;;20.93;46.46;94408.00;6186958;28;111305;-66
2023/10/20 11:20:20;;;;;;;6.93;6.20;;;;;;;20.93;46.50;94406.09;6186461;28;109095;-66
2023/10/20 11:23:29;;;;;;;7.23;6.53;;;;;;;20.91;46.39;94399.53;6177114;28;111193;-66
2023/10/20 11:26:35;;;;;;;7.75;7.05;;;;;;;20.88;46.68;94400.19;6186283;28;109367;-65
2023/10/20 11:29:42;;;;;;;7.77;7.00;;;;;;;20.97;46.36;94384.19;6186329;28;109206;-65
2023/10/20 11:33:00;;;;;;;7.50;6.70;;;;;;;21.01;46.39;94403.78;6180548;28;110387;-64
2023/10/20 11:36:04;;;;;;;7.33;6.70;;;;;;;20.97;46.78;94386.84;6181040;28;110721;-65
2023/10/20 11:39:08;;;;;;;7.35;6.57;;;;;;;20.90;46.60;94376.69;6185949;28;109349;-65
2023/10/20 11:42:15;;;;;;;8.00;7.20;;;;;;;20.87;46.57;94388.75;6186045;28;109187;-65
2023/10/20 11:45:20;;;;;;;8.00;7.20;;;;;;;20.85;46.68;94393.59;6175312;28;109612;-66
2023/10/20 11:48:23;;;;;;;7.57;6.87;;;;;;;20.83;46.65;94393.13;6185666;28;111087;-65
2023/10/20 11:51:26;;;;;;;7.50;6.80;;;;;;;20.82;46.89;94377.47;6185819;28;109073;-65
2023/10/20 11:54:31;;;;;;;7.43;6.68;;;;;;;20.80;46.52;94382.31;6186029;28;109581;-66
2023/10/20 11:57:36;;;;;;;7.97;7.22;;;;;;;20.79;46.49;94392.19;6175001;28;109225;-68
2023/10/20 12:00:42;;;;;;;8.20;7.20;;;;;;;20.79;46.89;94386.88;6185601;28;112949;-66
2023/10/20 12:03:45;;;;;;;7.50;6.80;;;;;;;20.77;46.52;94391.72;6185903;28;109169;-66
2023/10/20 12:06:49;;;;;;;8.98;7.32;;;;;;;20.78;46.54;94387.19;6179808;28;109192;-66
2023/10/20 12:09:52;;;;;;;8.17;7.10;;;;;;;20.76;46.66;94384.84;6179490;28;109984;-76
2023/10/20 12:12:56;;;;;;;7.75;7.05;;;;;;;20.76;46.79;94376.06;6184750;28;109071;-65
2023/10/20 12:15:59;;;;;;;7.60;6.90;;;;;;;20.75;46.34;94385.16;6185048;28;109151;-66
2023/10/20 12:19:05;;;;;;;8.60;7.40;;;;;;;20.74;46.68;94373.75;6174770;28;109840;-66
2023/10/20 12:22:09;;;;;;;7.90;7.13;;;;;;;20.74;46.27;94384.38;6185536;28;109696;-66
2023/10/20 12:25:12;;;;;;;8.30;7.50;;;;;;;20.75;46.50;94385.94;6185038;28;109318;-65
2023/10/20 12:28:17;;;;;;;9.00;7.70;;;;;;;20.75;46.35;94366.53;6185143;28;109174;-65
2023/10/20 12:31:21;;;;;;;8.40;7.70;;;;;;;20.73;46.46;94358.09;6173184;28;109977;-67
2023/10/20 12:34:25;;;;;;;7.90;7.20;;;;;;;20.73;46.55;94358.88;6185210;28;109034;-65
2023/10/20 12:37:28;;;;;;;8.90;8.00;;;;;;;20.72;46.48;94348.56;6184443;28;109078;-66
2023/10/20 12:40:31;;;;;;;8.70;7.90;;;;;;;20.70;46.32;94370.16;6184653;28;109246;-65
2023/10/20 12:43:35;;;;;;;9.50;8.60;;;;;;;20.72;46.21;94365.28;6174331;28;109279;-66
2023/10/20 12:46:38;;;;;;;9.70;8.70;;;;;;;20.72;46.06;94370.63;6184753;28;110309;-65
2023/10/20 12:49:42;;;;;;;10.18;9.27;;;;;;;20.71;46.12;94360.28;6184696;28;109079;-66
2023/10/20 12:52:45;;;;;;;9.50;8.50;;;;;;;20.73;45.99;94366.06;6153577;28;109717;-64
2023/10/20 12:55:48;;;;;;;9.43;8.50;;;;;;;20.72;45.85;94359.19;6166170;28;109151;-66
2023/10/20 12:58:53;;;;;;;9.98;8.98;;;;;;;20.73;45.60;94376.72;6184558;28;109380;-65
2023/10/20 13:01:56;;;;;;;9.20;8.33;;;;;;;20.74;45.60;94364.97;6184689;28;109408;-62
2023/10/20 13:04:59;;;;;;;8.50;7.70;;;;;;;20.72;45.62;94365.28;6173411;28;109362;-63
2023/10/20 13:08:03;;;;;;;9.23;8.32;;;;;;;20.73;45.54;94376.72;6184835;28;110009;-62
2023/10/20 13:11:08;;;;;;;9.00;7.70;;;;;;;20.73;45.39;94364.19;6184499;28;109096;-63
2023/10/20 13:14:12;;;;;;;7.70;6.90;;;;;;;20.72;45.07;94381.25;6183632;28;109133;-62
2023/10/20 13:17:16;;;;;;;8.70;7.35;;;;;;;20.73;45.18;94369.50;6172979;28;109141;-62
2023/10/20 13:20:19;;;;;;;8.38;6.90;;;;;;;20.73;45.06;94376.72;6184198;28;108928;-62
2023/10/20 13:23:22;;;;;;;10.32;7.43;;;;;;;20.73;45.27;94396.09;6184202;28;109364;-62
2023/10/20 13:26:26;;;;;;;9.97;7.27;;;;;;;20.72;44.97;94344.03;6179586;28;109067;-61
2023/10/20 13:29:31;;;;;;;8.45;7.00;;;;;;;20.71;44.73;94385.00;6178103;28;108844;-62
2023/10/20 13:32:35;;;;;;;8.05;6.78;;;;;;;20.70;44.92;94364.81;6183216;28;109173;-66
2023/10/20 13:35:40;;;;;;;8.18;7.05;;;;;;;20.69;44.85;94363.25;6183907;28;109118;-62
2023/10/20 13:38:44;;;;;;;8.38;6.60;;;;;;;20.71;44.81;94373.59;6172844;28;109233;-62
2023/10/20 13:41:47;;;;;;;7.47;6.40;;;;;;;20.71;44.52;94384.22;6183657;28;109303;-62
2023/10/20 13:44:53;;;;;;;8.48;6.80;;;;;;;20.72;44.19;94407.06;6183300;28;110221;-61
2023/10/20 13:47:56;;;;;;;8.57;6.90;;;;;;;20.71;44.09;94370.94;6183464;28;109701;-62
2023/10/20 13:50:59;;;;;;;8.07;6.95;;;;;;;20.70;44.24;94378.13;6172618;28;110191;-63
2023/10/20 13:54:03;;;;;;;7.05;5.60;;;;;;;20.73;43.79;94398.75;6183620;28;109160;-62
2023/10/20 13:57:06;;;;;;;8.88;6.13;;;;;;;20.75;43.50;94375.28;6183355;28;109289;-61
2023/10/20 14:00:12;;;;;;;8.20;5.60;;;;;;;20.79;42.72;94383.44;6183697;28;110132;-62
2023/10/20 14:03:15;;;;;;;7.10;5.20;;;;;;;20.80;42.40;94415.03;6151325;28;110460;-61
2023/10/20 14:06:18;;;;;;;6.72;5.40;;;;;;;20.78;42.74;94425.19;6167776;28;109392;-61
2023/10/20 14:09:22;;;;;;;8.57;4.95;;;;;;;20.76;41.55;94352.16;6183423;28;109253;-63
2023/10/20 14:12:25;;;;;;;7.37;4.80;;;;;;;20.76;41.83;94389.38;6173576;28;109588;-63
2023/10/20 14:15:29;;;;;;;7.30;4.80;;;;;;;20.75;41.62;94391.25;6162660;28;110495;-71
2023/10/20 14:18:33;;;;;;;8.33;5.60;;;;;;;20.78;42.18;94376.53;6181308;28;109129;-71
2023/10/20 14:21:36;;;;;;;14.80;6.90;;;;;;;20.76;42.49;94382.19;6168717;28;109250;-73
2023/10/20 14:24:39;;;;;;;9.17;5.40;;;;;;;20.83;40.97;94379.03;6154513;28;109097;-71